createdAt,value
2018-10-09T00:01:53.323Z,27.70
2018-10-09T00:04:21.800Z,29.37
2018-10-09T00:06:50.645Z,29.97
2018-10-09T00:09:18.992Z,31.70
2018-10-09T00:11:47.311Z,32.63
2018-10-09T00:14:15.860Z,31.63
2018-10-09T00:16:44.316Z,34.77
2018-10-09T00:19:12.625Z,32.10
2018-10-09T00:21:40.965Z,36.00
2018-10-09T00:24:09.293Z,33.13
2018-10-09T00:26:37.618Z,32.17
2018-10-09T00:29:06.102Z,32.90
2018-10-09T00:31:34.462Z,33.97
2018-10-09T00:34:02.810Z,33.90
2018-10-09T00:36:31.337Z,35.70
2018-10-09T00:38:59.670Z,33.37
2018-10-09T00:41:28.100Z,33.40
2018-10-09T00:43:56.417Z,34.77
2018-10-09T00:46:24.937Z,32.67
2018-10-09T00:48:53.320Z,31.90
2018-10-09T00:51:21.657Z,32.00
2018-10-09T00:53:49.982Z,31.63
2018-10-09T00:56:18.337Z,34.03
2018-10-09T00:58:46.661Z,30.43
2018-10-09T01:01:15.106Z,31.80
2018-10-09T01:03:43.416Z,32.27
2018-10-09T01:06:11.748Z,34.47
2018-10-09T01:08:40.109Z,33.40
2018-10-09T01:11:08.445Z,34.07
2018-10-09T01:13:36.929Z,36.90
2018-10-09T01:16:05.407Z,34.00
2018-10-09T01:18:33.762Z,32.70
2018-10-09T01:21:02.093Z,34.97
2018-10-09T01:23:30.423Z,33.83
2018-10-09T01:25:58.921Z,33.30
2018-10-09T01:28:27.317Z,32.27
2018-10-09T01:30:55.639Z,33.47
2018-10-09T01:33:24.041Z,34.37
2018-10-09T01:35:52.402Z,33.40
2018-10-09T01:38:20.711Z,33.07
2018-10-09T01:40:49.033Z,35.60
2018-10-09T01:43:17.394Z,35.90
2018-10-09T01:45:45.726Z,34.33
2018-10-09T01:48:14.070Z,36.17
2018-10-09T01:50:42.880Z,33.10
2018-10-09T01:53:11.225Z,33.10
2018-10-09T01:55:39.613Z,29.60
2018-10-09T01:58:08.005Z,33.10
2018-10-09T02:00:36.324Z,32.77
2018-10-09T02:03:04.677Z,32.47
2018-10-09T02:05:33.207Z,34.20
2018-10-09T02:08:01.542Z,31.33
2018-10-09T02:10:29.888Z,33.13
2018-10-09T02:12:58.391Z,31.33
2018-10-09T02:15:26.874Z,31.30
2018-10-09T02:17:55.249Z,31.13
2018-10-09T02:20:23.587Z,31.47
2018-10-09T02:22:51.946Z,33.07
2018-10-09T02:25:20.252Z,32.90
2018-10-09T02:27:48.599Z,34.70
2018-10-09T02:30:17.086Z,33.10
2018-10-09T02:32:45.489Z,32.97
2018-10-09T02:35:13.805Z,34.40
2018-10-09T02:37:42.130Z,34.80
2018-10-09T02:40:10.617Z,36.10
2018-10-09T02:42:38.974Z,37.43
2018-10-09T02:45:07.364Z,36.33
2018-10-09T02:47:35.845Z,33.70
2018-10-09T02:50:04.471Z,35.00
2018-10-09T02:52:32.825Z,35.30
2018-10-09T02:55:01.234Z,36.70
2018-10-09T02:57:29.750Z,35.73
2018-10-09T02:59:58.174Z,33.37
2018-10-09T03:02:26.642Z,35.60
2018-10-09T03:04:54.960Z,34.90
2018-10-09T03:07:23.510Z,37.40
2018-10-09T03:09:51.890Z,38.87
2018-10-09T03:12:20.278Z,36.27
2018-10-09T03:14:48.629Z,36.67
2018-10-09T03:17:16.992Z,38.30
2018-10-09T03:19:45.311Z,40.67
2018-10-09T03:22:13.629Z,39.20
2018-10-09T03:24:41.981Z,39.23
2018-10-09T03:27:10.446Z,39.80
2018-10-09T03:29:38.805Z,38.87
2018-10-09T03:32:07.582Z,35.60
2018-10-09T03:34:36.030Z,35.10
2018-10-09T03:37:04.514Z,36.17
2018-10-09T03:39:33.781Z,36.30
2018-10-09T03:42:02.602Z,38.80
2018-10-09T03:44:30.924Z,35.63
2018-10-09T03:46:59.282Z,37.80
2018-10-09T03:49:27.661Z,39.60
2018-10-09T03:51:55.981Z,38.63
2018-10-09T03:54:24.389Z,39.97
2018-10-09T03:56:52.769Z,43.07
2018-10-09T03:59:21.137Z,43.17
2018-10-09T04:01:49.458Z,39.47
2018-10-09T04:04:17.917Z,43.70
2018-10-09T04:06:46.242Z,39.70
2018-10-09T04:09:14.848Z,40.50
2018-10-09T04:11:43.688Z,42.50
2018-10-09T04:14:12.134Z,40.07
2018-10-09T04:16:40.500Z,42.37
2018-10-09T04:19:08.866Z,41.30
2018-10-09T04:21:37.401Z,43.43
2018-10-09T04:24:05.822Z,42.67
2018-10-09T04:26:34.409Z,43.37
2018-10-09T04:29:02.873Z,44.00
2018-10-09T04:31:31.211Z,43.70
2018-10-09T04:33:59.577Z,44.10
2018-10-09T04:36:27.926Z,44.70
2018-10-09T04:38:56.290Z,43.47
2018-10-09T04:41:24.705Z,45.27
2018-10-09T04:43:53.026Z,44.93
2018-10-09T04:46:21.365Z,44.90
2018-10-09T04:48:50.053Z,42.30
2018-10-09T04:51:18.422Z,45.60
2018-10-09T04:53:46.737Z,42.80
2018-10-09T04:56:15.090Z,42.70
2018-10-09T04:58:43.530Z,45.33
2018-10-09T05:01:11.872Z,42.77
2018-10-09T05:03:40.220Z,41.10
2018-10-09T05:06:08.855Z,42.67
2018-10-09T05:08:37.169Z,43.50
2018-10-09T05:11:05.690Z,43.17
2018-10-09T05:13:34.132Z,40.03
2018-10-09T05:16:02.528Z,42.53
2018-10-09T05:18:30.869Z,43.43
2018-10-09T05:20:59.351Z,42.10
2018-10-09T05:23:27.726Z,42.60
2018-10-09T05:25:56.563Z,42.37
2018-10-09T05:28:24.885Z,41.97
2018-10-09T05:30:53.610Z,40.73
2018-10-09T05:33:21.930Z,43.40
2018-10-09T05:35:50.385Z,42.77
2018-10-09T05:38:18.742Z,43.03
2018-10-09T05:40:47.117Z,41.20
2018-10-09T05:43:15.551Z,41.47
2018-10-09T05:45:44.018Z,43.20
2018-10-09T05:48:12.430Z,42.00
2018-10-09T05:50:40.921Z,41.13
2018-10-09T05:53:09.341Z,43.20
2018-10-09T05:55:37.996Z,41.60
2018-10-09T05:58:06.760Z,43.20
2018-10-09T06:00:35.018Z,41.57
2018-10-09T06:03:03.337Z,41.70
2018-10-09T06:05:31.894Z,38.87
2018-10-09T06:08:00.197Z,39.57
2018-10-09T06:10:28.561Z,39.10
2018-10-09T06:12:56.886Z,38.10
2018-10-09T06:15:25.443Z,40.60
2018-10-09T06:17:53.905Z,41.77
2018-10-09T06:20:22.360Z,43.83
2018-10-09T06:22:51.050Z,44.57
2018-10-09T06:25:19.417Z,45.57
2018-10-09T06:27:47.806Z,44.63
2018-10-09T06:30:16.102Z,44.63
2018-10-09T06:32:44.517Z,42.97
2018-10-09T06:35:12.950Z,42.77
2018-10-09T06:37:41.262Z,43.73
2018-10-09T06:40:09.605Z,46.63
2018-10-09T06:42:37.985Z,46.53
2018-10-09T06:45:06.606Z,46.53
2018-10-09T06:47:35.237Z,45.70
2018-10-09T06:50:03.552Z,46.00
2018-10-09T06:52:32.318Z,44.73
2018-10-09T06:55:00.777Z,46.20
2018-10-09T06:57:29.102Z,43.87
2018-10-09T06:59:57.628Z,46.33
2018-10-09T07:02:25.978Z,45.60
2018-10-09T07:04:54.334Z,48.60
2018-10-09T07:07:22.740Z,45.50
2018-10-09T07:09:51.138Z,47.00
2018-10-09T07:12:19.450Z,46.83
2018-10-09T07:14:47.937Z,47.07
2018-10-09T07:17:16.382Z,48.23
2018-10-09T07:19:44.724Z,46.50
2018-10-09T07:22:13.082Z,44.67
2018-10-09T07:24:41.482Z,46.73
2018-10-09T07:27:09.887Z,45.27
2018-10-09T07:29:38.236Z,43.40
2018-10-09T07:32:08.065Z,43.93
2018-10-09T07:34:36.399Z,42.40
2018-10-09T07:37:04.770Z,40.77
2018-10-09T07:39:33.116Z,41.07
2018-10-09T07:42:01.814Z,40.73
2018-10-09T07:44:30.344Z,41.87
2018-10-09T07:46:58.710Z,41.23
2018-10-09T07:49:27.092Z,38.97
2018-10-09T07:51:55.429Z,40.10
2018-10-09T07:54:23.774Z,40.60
2018-10-09T07:56:52.253Z,38.13
2018-10-09T07:59:20.582Z,41.37
2018-10-09T08:01:49.045Z,42.20
2018-10-09T08:04:17.369Z,37.73
2018-10-09T08:06:45.741Z,37.47
2018-10-09T08:09:14.078Z,39.20
2018-10-09T08:11:42.428Z,39.10
2018-10-09T08:14:11.071Z,37.87
2018-10-09T08:16:39.580Z,39.33
2018-10-09T08:19:07.922Z,41.07
2018-10-09T08:21:36.316Z,39.83
2018-10-09T08:24:04.682Z,41.47
2018-10-09T08:26:33.070Z,39.80
2018-10-09T08:29:01.443Z,42.07
2018-10-09T08:31:29.820Z,40.50
2018-10-09T08:33:58.193Z,39.13
2018-10-09T08:36:26.534Z,37.93
2018-10-09T08:38:55.260Z,38.27
2018-10-09T08:41:23.836Z,40.90
2018-10-09T08:43:53.115Z,40.07
2018-10-09T08:46:21.586Z,37.67
2018-10-09T08:48:49.828Z,39.80
2018-10-09T08:51:18.210Z,42.17
2018-10-09T08:53:46.594Z,42.70
2018-10-09T08:56:15.122Z,43.77
2018-10-09T08:58:43.535Z,41.20
2018-10-09T09:01:11.891Z,41.37
2018-10-09T09:03:40.256Z,44.40
2018-10-09T09:06:08.623Z,44.67
2018-10-09T09:08:36.957Z,42.10
2018-10-09T09:11:05.334Z,39.27
2018-10-09T09:13:33.693Z,40.40
2018-10-09T09:16:02.355Z,38.67
2018-10-09T09:18:30.915Z,41.87
2018-10-09T09:20:59.384Z,39.90
2018-10-09T09:23:27.718Z,39.70
2018-10-09T09:25:56.379Z,39.70
2018-10-09T09:28:24.930Z,41.90
2018-10-09T09:30:53.334Z,39.03
2018-10-09T09:33:22.035Z,36.10
2018-10-09T09:35:50.394Z,39.13
2018-10-09T09:38:19.420Z,37.40
2018-10-09T09:40:48.105Z,41.17
2018-10-09T09:43:16.766Z,38.33
2018-10-09T09:45:45.302Z,39.33
2018-10-09T09:48:13.749Z,41.20
2018-10-09T09:50:42.121Z,41.50
2018-10-09T09:53:10.511Z,41.03
2018-10-09T09:55:38.803Z,38.07
2018-10-09T09:58:07.325Z,37.80
2018-10-09T10:00:44.074Z,35.47
2018-10-09T10:03:12.530Z,38.77
2018-10-09T10:05:40.879Z,37.87
2018-10-09T10:08:09.217Z,37.80
2018-10-09T10:10:37.599Z,34.70
2018-10-09T10:13:05.971Z,34.97
2018-10-09T10:15:34.351Z,35.53
2018-10-09T10:18:02.870Z,34.53
2018-10-09T10:20:31.221Z,34.67
2018-10-09T10:22:59.733Z,33.07
2018-10-09T10:25:28.081Z,36.63
2018-10-09T10:27:56.437Z,35.90
2018-10-09T10:30:24.817Z,34.17
2018-10-09T10:32:53.143Z,33.10
2018-10-09T10:35:21.462Z,34.80
2018-10-09T10:37:49.845Z,31.90
2018-10-09T10:40:18.206Z,27.40
2018-10-09T10:42:46.590Z,26.33
2018-10-09T10:45:14.923Z,24.30
2018-10-09T10:47:43.376Z,21.97
2018-10-09T10:50:11.857Z,22.10
2018-10-09T10:52:40.238Z,21.67
2018-10-09T10:55:08.741Z,22.40
2018-10-09T10:57:37.057Z,21.47
2018-10-09T11:00:06.201Z,21.37
2018-10-09T11:02:34.869Z,19.67
2018-10-09T11:05:03.225Z,20.80
2018-10-09T11:07:31.718Z,18.47
2018-10-09T11:10:00.159Z,20.40
2018-10-09T11:12:28.547Z,19.60
2018-10-09T11:14:57.162Z,19.50
2018-10-09T11:17:25.550Z,20.33
2018-10-09T11:19:53.892Z,19.33
2018-10-09T11:22:22.412Z,20.00
2018-10-09T11:24:51.004Z,19.50
2018-10-09T11:27:19.582Z,20.70
2018-10-09T11:29:48.189Z,18.23
2018-10-09T11:32:16.568Z,20.60
2018-10-09T11:34:44.913Z,20.10
2018-10-09T11:37:12.952Z,20.73
2018-10-09T11:39:41.522Z,20.90
2018-10-09T11:42:09.861Z,21.97
2018-10-09T11:44:38.346Z,21.90
2018-10-09T11:47:06.886Z,20.90
2018-10-09T11:49:35.337Z,21.17
2018-10-09T11:52:03.717Z,19.70
2018-10-09T11:54:32.055Z,21.33
2018-10-09T11:57:00.686Z,20.80
2018-10-09T11:59:29.042Z,18.70
2018-10-09T12:01:57.451Z,23.33
2018-10-09T12:04:25.827Z,22.37
2018-10-09T12:06:54.165Z,18.67
2018-10-09T12:09:22.734Z,22.97
2018-10-09T12:11:51.182Z,19.20
2018-10-09T12:14:19.657Z,19.33
2018-10-09T12:16:48.033Z,19.30
2018-10-09T12:19:16.390Z,21.17
2018-10-09T12:21:44.725Z,21.07
2018-10-09T12:24:13.128Z,19.97
2018-10-09T12:26:41.486Z,18.23
2018-10-09T12:29:09.818Z,19.70
2018-10-09T12:31:38.214Z,16.13
2018-10-09T12:34:07.515Z,20.47
2018-10-09T12:36:35.986Z,20.27
2018-10-09T12:39:08.070Z,18.07
2018-10-09T12:41:36.546Z,21.20
2018-10-09T12:44:04.963Z,19.73
2018-10-09T12:46:33.519Z,17.50
2018-10-09T12:49:01.880Z,18.43
2018-10-09T12:51:30.222Z,18.47
2018-10-09T12:53:58.737Z,18.33
2018-10-09T12:56:27.080Z,20.50
2018-10-09T12:58:55.587Z,22.87
2018-10-09T13:01:24.058Z,19.57
2018-10-09T13:03:52.594Z,22.03
2018-10-09T13:06:20.917Z,19.33
2018-10-09T13:08:49.258Z,19.83
2018-10-09T13:11:17.609Z,19.17
2018-10-09T13:13:45.980Z,18.53
2018-10-09T13:16:14.414Z,19.03
2018-10-09T13:18:42.792Z,15.87
2018-10-09T13:21:11.315Z,16.57
2018-10-09T13:23:39.556Z,18.30
2018-10-09T13:26:07.910Z,16.70
2018-10-09T13:28:36.303Z,16.67
2018-10-09T13:31:04.720Z,16.93
2018-10-09T13:33:32.980Z,16.50
2018-10-09T13:36:01.562Z,16.57
2018-10-09T13:38:30.110Z,18.00
2018-10-09T13:40:58.501Z,16.67
2018-10-09T13:43:26.829Z,15.57
2018-10-09T13:45:55.258Z,15.47
2018-10-09T13:48:23.625Z,15.10
2018-10-09T13:50:52.090Z,13.80
2018-10-09T13:53:20.378Z,15.17
2018-10-09T13:55:48.890Z,15.20
2018-10-09T13:58:17.287Z,14.50
2018-10-09T14:00:46.153Z,15.43
2018-10-09T14:03:14.469Z,15.67
2018-10-09T14:05:43.029Z,16.30
2018-10-09T14:08:11.354Z,13.80
2018-10-09T14:10:39.734Z,14.00
2018-10-09T14:13:08.136Z,15.30
2018-10-09T14:15:36.506Z,14.63
2018-10-09T14:18:04.884Z,15.07
2018-10-09T14:20:33.381Z,15.33
2018-10-09T14:23:01.767Z,15.13
2018-10-09T14:25:30.077Z,13.80
2018-10-09T14:27:58.405Z,13.93
2018-10-09T14:30:26.756Z,14.03
2018-10-09T14:32:55.121Z,13.97
2018-10-09T14:35:23.574Z,14.83
2018-10-09T14:37:51.917Z,14.70
2018-10-09T14:40:20.298Z,14.17
2018-10-09T14:42:48.651Z,13.60
2018-10-09T14:45:17.100Z,13.47
2018-10-09T14:47:45.474Z,15.00
2018-10-09T14:50:13.851Z,13.43
2018-10-09T14:52:42.217Z,12.67
2018-10-09T14:55:10.546Z,13.00
2018-10-09T14:57:38.937Z,12.77
2018-10-09T15:00:09.126Z,13.07
2018-10-09T15:02:37.493Z,12.83
2018-10-09T15:05:05.823Z,13.20
2018-10-09T15:07:34.191Z,13.10
2018-10-09T15:10:02.561Z,12.63
2018-10-09T15:12:30.958Z,13.43
2018-10-09T15:14:59.501Z,13.27
2018-10-09T15:17:27.858Z,11.73
2018-10-09T15:19:56.198Z,12.30
2018-10-09T15:22:24.539Z,11.87
2018-10-09T15:24:52.981Z,12.17
2018-10-09T15:27:21.370Z,11.17
2018-10-09T15:29:49.889Z,11.67
2018-10-09T15:32:18.359Z,11.80
2018-10-09T15:34:46.737Z,12.13
2018-10-09T15:37:15.075Z,12.10
2018-10-09T15:39:43.524Z,11.30
2018-10-09T15:42:11.987Z,11.60
2018-10-09T15:44:40.349Z,11.23
2018-10-09T15:47:08.771Z,11.23
2018-10-09T15:49:37.233Z,11.30
2018-10-09T15:52:05.645Z,11.47
2018-10-09T15:54:33.990Z,12.10
2018-10-09T15:57:02.463Z,12.77
2018-10-09T15:59:30.793Z,12.60
2018-10-09T16:01:59.157Z,13.07
2018-10-09T16:04:27.521Z,11.97
2018-10-09T16:06:55.978Z,13.10
2018-10-09T16:09:24.307Z,12.43
2018-10-09T16:11:52.664Z,12.90
2018-10-09T16:14:21.165Z,12.10
2018-10-09T16:16:49.515Z,15.00
2018-10-09T16:19:17.895Z,13.00
2018-10-09T16:21:46.403Z,14.60
2018-10-09T16:24:14.886Z,16.00
2018-10-09T16:26:43.325Z,12.90
2018-10-09T16:29:11.739Z,13.50
2018-10-09T16:31:40.090Z,14.50
2018-10-09T16:34:08.431Z,14.10
2018-10-09T16:36:36.830Z,15.57
2018-10-09T16:39:08.350Z,14.03
2018-10-09T16:41:36.697Z,13.73
2018-10-09T16:44:05.075Z,16.40
2018-10-09T16:46:33.627Z,16.77
2018-10-09T16:49:02.192Z,13.83
2018-10-09T16:51:30.736Z,16.10
2018-10-09T16:53:59.107Z,16.50
2018-10-09T16:56:27.470Z,16.07
2018-10-09T16:58:56.038Z,16.80
2018-10-09T17:01:24.516Z,18.53
2018-10-09T17:03:52.892Z,17.50
2018-10-09T17:06:21.310Z,17.63
2018-10-09T17:08:49.746Z,17.90
2018-10-09T17:11:18.133Z,18.37
2018-10-09T17:13:46.474Z,17.20
2018-10-09T17:16:14.875Z,19.20
2018-10-09T17:18:43.285Z,18.80
2018-10-09T17:21:11.626Z,19.37
2018-10-09T17:23:40.061Z,18.77
2018-10-09T17:26:08.545Z,19.73
2018-10-09T17:28:37.036Z,19.43
2018-10-09T17:31:05.698Z,18.83
2018-10-09T17:33:34.146Z,18.60
2018-10-09T17:36:02.602Z,20.77
2018-10-09T17:38:31.258Z,19.23
2018-10-09T17:40:59.770Z,20.47
2018-10-09T17:43:28.453Z,21.23
2018-10-09T17:45:56.837Z,24.27
2018-10-09T17:48:25.281Z,23.50
2018-10-09T17:50:53.678Z,21.87
2018-10-09T17:53:22.011Z,22.17
2018-10-09T17:55:50.453Z,23.33
2018-10-09T17:58:18.866Z,23.90
2018-10-09T18:00:47.481Z,22.97
2018-10-09T18:03:15.859Z,26.07
2018-10-09T18:05:44.314Z,25.00
2018-10-09T18:08:13.111Z,27.27
2018-10-09T18:10:41.924Z,25.30
2018-10-09T18:13:10.366Z,26.40
2018-10-09T18:15:38.800Z,25.80
2018-10-09T18:18:07.163Z,25.63
2018-10-09T18:20:37.258Z,25.10
2018-10-09T18:23:05.659Z,25.07
2018-10-09T18:25:34.022Z,27.07
2018-10-09T18:28:02.408Z,26.73
2018-10-09T18:30:30.795Z,26.10
2018-10-09T18:32:59.390Z,27.53
2018-10-09T18:35:27.735Z,25.53
2018-10-09T18:37:56.289Z,28.60
2018-10-09T18:40:24.798Z,27.53
2018-10-09T18:42:53.219Z,33.00
2018-10-09T18:45:21.677Z,28.20
2018-10-09T18:47:50.062Z,28.37
2018-10-09T18:50:18.465Z,27.80
2018-10-09T18:52:46.839Z,25.70
2018-10-09T18:55:16.883Z,27.63
2018-10-09T18:57:46.119Z,29.67
2018-10-09T19:00:14.842Z,29.00
2018-10-09T19:02:43.234Z,30.80
2018-10-09T19:05:11.695Z,29.83
2018-10-09T19:07:40.623Z,27.90
2018-10-09T19:10:09.826Z,30.20
2018-10-09T19:12:38.313Z,31.23
2018-10-09T19:15:06.890Z,32.07
2018-10-09T19:17:35.240Z,29.10
2018-10-09T19:20:03.705Z,29.63
2018-10-09T19:22:32.170Z,29.53
2018-10-09T19:25:00.642Z,31.20
2018-10-09T19:27:29.029Z,30.57
2018-10-09T19:29:57.422Z,30.50
2018-10-09T19:32:25.839Z,29.87
2018-10-09T19:34:54.200Z,30.03
2018-10-09T19:37:22.876Z,30.07
2018-10-09T19:39:51.453Z,29.97
2018-10-09T19:42:21.427Z,31.80
2018-10-09T19:44:49.993Z,32.03
2018-10-09T19:47:18.501Z,31.10
2018-10-09T19:49:46.945Z,29.93
2018-10-09T19:52:15.305Z,32.10
2018-10-09T19:54:43.693Z,31.70
2018-10-09T19:57:12.083Z,30.33
2018-10-09T19:59:40.546Z,30.90
2018-10-09T20:02:08.927Z,28.20
2018-10-09T20:04:37.301Z,29.37
2018-10-09T20:07:05.679Z,30.67
2018-10-09T20:09:34.148Z,29.93
2018-10-09T20:12:02.530Z,34.37
2018-10-09T20:14:31.382Z,32.50
2018-10-09T20:16:59.655Z,30.77
2018-10-09T20:19:28.117Z,30.70
2018-10-09T20:21:56.507Z,30.13
2018-10-09T20:24:24.987Z,29.57
2018-10-09T20:26:54.145Z,33.50
2018-10-09T20:29:22.681Z,31.87
2018-10-09T20:31:51.179Z,34.03
2018-10-09T20:34:19.554Z,34.03
2018-10-09T20:36:48.019Z,33.53
2018-10-09T20:39:16.565Z,31.80
2018-10-09T20:41:44.948Z,33.60
2018-10-09T20:44:13.455Z,34.20
2018-10-09T20:46:41.865Z,35.20
2018-10-09T20:49:10.262Z,33.80
2018-10-09T20:51:38.726Z,35.20
2018-10-09T20:54:07.935Z,36.13
2018-10-09T20:56:36.316Z,33.70
2018-10-09T20:59:05.377Z,33.83
2018-10-09T21:01:34.483Z,35.50
2018-10-09T21:04:03.233Z,36.40
2018-10-09T21:06:31.634Z,35.30
2018-10-09T21:09:00.197Z,35.63
2018-10-09T21:11:28.570Z,37.70
2018-10-09T21:13:56.966Z,36.30
2018-10-09T21:16:25.326Z,35.70
2018-10-09T21:18:53.678Z,34.00
2018-10-09T21:21:22.086Z,36.27
2018-10-09T21:23:50.450Z,35.03
2018-10-09T21:26:18.997Z,34.43
2018-10-09T21:28:47.542Z,34.40
2018-10-09T21:31:15.883Z,35.97
2018-10-09T21:33:44.590Z,34.80
2018-10-09T21:36:12.936Z,32.67
2018-10-09T21:38:41.298Z,36.43
2018-10-09T21:41:09.782Z,34.00
2018-10-09T21:43:38.166Z,33.50
2018-10-09T21:46:06.897Z,33.80
2018-10-09T21:48:35.245Z,34.97
2018-10-09T21:51:03.650Z,36.07
2018-10-09T21:53:31.992Z,34.77
2018-10-09T21:56:00.339Z,35.80
2018-10-09T21:58:28.759Z,38.40
2018-10-09T22:01:02.425Z,37.50
2018-10-09T22:03:30.809Z,36.00
2018-10-09T22:05:59.329Z,35.90
2018-10-09T22:08:27.794Z,35.63
2018-10-09T22:10:56.190Z,37.77
2018-10-09T22:13:24.679Z,36.80
2018-10-09T22:15:53.046Z,34.70
2018-10-09T22:18:21.821Z,35.20
2018-10-09T22:20:50.174Z,34.93
2018-10-09T22:23:18.577Z,37.73
2018-10-09T22:25:47.205Z,35.93
2018-10-09T22:28:15.610Z,37.00
2018-10-09T22:30:44.001Z,38.93
2018-10-09T22:33:12.482Z,41.27
2018-10-09T22:35:40.937Z,40.67
2018-10-09T22:38:10.645Z,41.80
2018-10-09T22:40:38.986Z,40.27
2018-10-09T22:43:07.302Z,41.60
2018-10-09T22:45:35.863Z,40.27
2018-10-09T22:48:04.315Z,40.97
2018-10-09T22:50:32.766Z,39.30
2018-10-09T22:53:01.118Z,41.07
2018-10-09T22:55:29.514Z,40.83
2018-10-09T22:57:58.053Z,39.30
2018-10-09T23:00:26.419Z,39.60
2018-10-09T23:02:54.785Z,39.90
2018-10-09T23:05:23.189Z,40.63
2018-10-09T23:07:51.690Z,40.77
2018-10-09T23:10:20.052Z,38.30
2018-10-09T23:12:48.423Z,36.77
2018-10-09T23:15:16.874Z,38.30
2018-10-09T23:17:45.249Z,38.67
2018-10-09T23:20:13.600Z,38.87
2018-10-09T23:22:41.949Z,34.63
2018-10-09T23:25:10.809Z,39.80
2018-10-09T23:27:39.250Z,38.00
2018-10-09T23:30:08.518Z,39.93
2018-10-09T23:32:36.923Z,37.33
2018-10-09T23:35:05.275Z,40.70
2018-10-09T23:37:33.624Z,38.20
2018-10-09T23:40:02.169Z,38.20
2018-10-09T23:42:30.735Z,38.70
2018-10-09T23:44:59.310Z,37.90
2018-10-09T23:47:27.823Z,39.47
2018-10-09T23:49:56.170Z,37.43
2018-10-09T23:52:24.581Z,38.00
2018-10-09T23:54:52.917Z,38.37
2018-10-09T23:57:21.281Z,38.17
2018-10-09T23:59:49.735Z,41.50
